Terminal Aerodrome Forecast
Issued by NWS

Home | Current Version | Previous Version | Graphics & Text | Print | Product List | Glossary On
Versions: 1 2 3 4 5 6 7 8 9 10 11 12 13 14 15 16 17 18 19 20 21
000
FTUS43 KPAH 272025 AAB
TAFOWB
TAF AMD
KOWB 272025Z 2720/2818 13009KT P6SM SCT025 BKN080
      TEMPO 2720/2722 BKN013
     FM272200 17012G22KT P6SM VCTS BKN035CB
      TEMPO 2723/2803 4SM TSRA BR BKN025CB
     FM280600 22005KT P6SM SCT250
     FM281400 25012KT P6SM SCT250=

USA.gov is the U.S. government's official web portal to all federal, state and local government web resources and services.